sensor_id;sensor_type;location;lat;lon;timestamp;temperature;humidity
12870;DHT22;6503;48.572;13.460;2023-03-14T00:01:29;5.30;99.90
12870;DHT22;6503;48.572;13.460;2023-03-14T00:03:56;5.40;99.90
12870;DHT22;6503;48.572;13.460;2023-03-14T00:06:23;5.50;99.90
12870;DHT22;6503;48.572;13.460;2023-03-14T00:08:50;5.60;99.90
12870;DHT22;6503;48.572;13.460;2023-03-14T00:11:20;5.60;99.90
12870;DHT22;6503;48.572;13.460;2023-03-14T00:13:50;5.60;99.90
12870;DHT22;6503;48.572;13.460;2023-03-14T00:16:18;5.70;99.90
12870;DHT22;6503;48.572;13.460;2023-03-14T00:18:45;5.60;99.90
12870;DHT22;6503;48.572;13.460;2023-03-14T00:21:13;5.50;99.90
12870;DHT22;6503;48.572;13.460;2023-03-14T00:23:41;5.50;99.90
12870;DHT22;6503;48.572;13.460;2023-03-14T00:26:11;5.50;99.90
12870;DHT22;6503;48.572;13.460;2023-03-14T00:28:39;5.50;99.90
12870;DHT22;6503;48.572;13.460;2023-03-14T00:31:10;5.50;99.90
12870;DHT22;6503;48.572;13.460;2023-03-14T00:33:37;5.50;99.90
12870;DHT22;6503;48.572;13.460;2023-03-14T00:36:07;5.40;99.90
12870;DHT22;6503;48.572;13.460;2023-03-14T00:38:36;5.40;99.90
12870;DHT22;6503;48.572;13.460;2023-03-14T00:41:04;5.40;99.90
12870;DHT22;6503;48.572;13.460;2023-03-14T00:43:32;5.40;99.90
12870;DHT22;6503;48.572;13.460;2023-03-14T00:45:59;5.40;99.90
12870;DHT22;6503;48.572;13.460;2023-03-14T00:48:28;5.40;99.90
12870;DHT22;6503;48.572;13.460;2023-03-14T00:50:55;5.40;99.90
12870;DHT22;6503;48.572;13.460;2023-03-14T00:53:22;5.40;99.90
12870;DHT22;6503;48.572;13.460;2023-03-14T00:55:50;5.50;99.90
12870;DHT22;6503;48.572;13.460;2023-03-14T00:58:18;5.40;99.90
12870;DHT22;6503;48.572;13.460;2023-03-14T01:00:45;5.40;99.90
12870;DHT22;6503;48.572;13.460;2023-03-14T01:03:13;5.40;99.90
12870;DHT22;6503;48.572;13.460;2023-03-14T01:05:42;5.40;99.90
12870;DHT22;6503;48.572;13.460;2023-03-14T01:08:09;5.50;99.90
12870;DHT22;6503;48.572;13.460;2023-03-14T01:10:38;5.50;99.90
12870;DHT22;6503;48.572;13.460;2023-03-14T01:13:05;5.40;99.90
12870;DHT22;6503;48.572;13.460;2023-03-14T01:16:12;5.40;99.90
12870;DHT22;6503;48.572;13.460;2023-03-14T01:19:05;5.40;99.90
12870;DHT22;6503;48.572;13.460;2023-03-14T02:44:28;5.60;99.90
12870;DHT22;6503;48.572;13.460;2023-03-14T02:46:56;5.60;99.90
12870;DHT22;6503;48.572;13.460;2023-03-14T02:49:24;5.60;99.90
12870;DHT22;6503;48.572;13.460;2023-03-14T02:51:52;5.60;99.90
12870;DHT22;6503;48.572;13.460;2023-03-14T02:54:19;5.60;99.90
12870;DHT22;6503;48.572;13.460;2023-03-14T02:56:47;5.50;99.90
12870;DHT22;6503;48.572;13.460;2023-03-14T02:59:14;5.60;99.90
12870;DHT22;6503;48.572;13.460;2023-03-14T03:01:42;5.70;99.90
12870;DHT22;6503;48.572;13.460;2023-03-14T03:04:09;5.70;99.90
12870;DHT22;6503;48.572;13.460;2023-03-14T03:06:36;5.70;99.90
12870;DHT22;6503;48.572;13.460;2023-03-14T03:09:03;5.70;99.90
12870;DHT22;6503;48.572;13.460;2023-03-14T03:11:30;5.70;99.90
12870;DHT22;6503;48.572;13.460;2023-03-14T03:13:58;5.70;99.90
12870;DHT22;6503;48.572;13.460;2023-03-14T03:16:25;5.80;99.90
12870;DHT22;6503;48.572;13.460;2023-03-14T03:18:54;5.70;99.90
12870;DHT22;6503;48.572;13.460;2023-03-14T03:21:21;5.70;99.90
12870;DHT22;6503;48.572;13.460;2023-03-14T03:23:49;5.70;99.90
12870;DHT22;6503;48.572;13.460;2023-03-14T03:26:17;5.70;99.90
12870;DHT22;6503;48.572;13.460;2023-03-14T03:28:44;5.70;99.90
12870;DHT22;6503;48.572;13.460;2023-03-14T03:31:11;5.70;99.90
12870;DHT22;6503;48.572;13.460;2023-03-14T03:33:39;5.70;99.90
12870;DHT22;6503;48.572;13.460;2023-03-14T03:36:09;5.70;99.90
12870;DHT22;6503;48.572;13.460;2023-03-14T03:38:36;5.70;99.90
12870;DHT22;6503;48.572;13.460;2023-03-14T03:41:05;5.80;99.90
12870;DHT22;6503;48.572;13.460;2023-03-14T03:43:32;5.70;99.90
12870;DHT22;6503;48.572;13.460;2023-03-14T03:46:03;5.70;99.90
12870;DHT22;6503;48.572;13.460;2023-03-14T03:48:30;5.70;99.90
12870;DHT22;6503;48.572;13.460;2023-03-14T03:50:57;5.70;99.90
12870;DHT22;6503;48.572;13.460;2023-03-14T03:53:26;5.70;99.90
12870;DHT22;6503;48.572;13.460;2023-03-14T03:55:53;5.70;99.90
12870;DHT22;6503;48.572;13.460;2023-03-14T03:58:20;5.70;99.90
12870;DHT22;6503;48.572;13.460;2023-03-14T04:00:51;5.60;99.90
12870;DHT22;6503;48.572;13.460;2023-03-14T04:03:18;5.60;99.90
12870;DHT22;6503;48.572;13.460;2023-03-14T04:05:45;5.60;99.90
12870;DHT22;6503;48.572;13.460;2023-03-14T04:08:12;5.70;99.90
12870;DHT22;6503;48.572;13.460;2023-03-14T04:10:41;5.60;99.90
12870;DHT22;6503;48.572;13.460;2023-03-14T04:13:08;5.50;99.90
12870;DHT22;6503;48.572;13.460;2023-03-14T04:15:37;5.60;99.90
12870;DHT22;6503;48.572;13.460;2023-03-14T04:18:04;5.60;99.90
12870;DHT22;6503;48.572;13.460;2023-03-14T04:20:34;5.50;99.90
12870;DHT22;6503;48.572;13.460;2023-03-14T04:23:01;5.50;99.90
12870;DHT22;6503;48.572;13.460;2023-03-14T04:25:28;5.50;99.90
12870;DHT22;6503;48.572;13.460;2023-03-14T04:27:57;5.50;99.90
12870;DHT22;6503;48.572;13.460;2023-03-14T04:30:24;5.50;99.90
12870;DHT22;6503;48.572;13.460;2023-03-14T04:32:51;5.50;99.90
12870;DHT22;6503;48.572;13.460;2023-03-14T04:35:18;5.50;99.90
12870;DHT22;6503;48.572;13.460;2023-03-14T04:37:45;5.50;99.90
12870;DHT22;6503;48.572;13.460;2023-03-14T04:40:15;5.50;99.90
12870;DHT22;6503;48.572;13.460;2023-03-14T04:42:42;5.50;99.90
12870;DHT22;6503;48.572;13.460;2023-03-14T04:45:11;5.50;99.90
12870;DHT22;6503;48.572;13.460;2023-03-14T04:47:38;5.50;99.90
12870;DHT22;6503;48.572;13.460;2023-03-14T04:50:07;5.50;99.90
12870;DHT22;6503;48.572;13.460;2023-03-14T04:52:34;5.50;99.90
12870;DHT22;6503;48.572;13.460;2023-03-14T04:55:01;5.50;99.90
12870;DHT22;6503;48.572;13.460;2023-03-14T04:57:28;5.50;99.90
12870;DHT22;6503;48.572;13.460;2023-03-14T04:59:55;5.60;99.90
12870;DHT22;6503;48.572;13.460;2023-03-14T05:02:24;5.60;99.90
12870;DHT22;6503;48.572;13.460;2023-03-14T05:04:51;5.60;99.90
12870;DHT22;6503;48.572;13.460;2023-03-14T05:07:19;5.50;99.90
12870;DHT22;6503;48.572;13.460;2023-03-14T05:09:46;5.60;99.90
12870;DHT22;6503;48.572;13.460;2023-03-14T05:12:13;5.50;99.90
12870;DHT22;6503;48.572;13.460;2023-03-14T05:14:41;5.50;99.90
12870;DHT22;6503;48.572;13.460;2023-03-14T05:17:08;5.60;99.90
12870;DHT22;6503;48.572;13.460;2023-03-14T05:19:37;5.50;99.90
12870;DHT22;6503;48.572;13.460;2023-03-14T05:22:05;5.50;99.90
12870;DHT22;6503;48.572;13.460;2023-03-14T05:24:32;5.60;99.90
12870;DHT22;6503;48.572;13.460;2023-03-14T05:27:00;5.60;99.90
12870;DHT22;6503;48.572;13.460;2023-03-14T05:29:27;5.60;99.90
12870;DHT22;6503;48.572;13.460;2023-03-14T05:31:54;5.60;99.90
12870;DHT22;6503;48.572;13.460;2023-03-14T05:34:21;5.60;99.90
12870;DHT22;6503;48.572;13.460;2023-03-14T06:48:47;6.10;99.90
12870;DHT22;6503;48.572;13.460;2023-03-14T06:51:25;6.20;99.90
12870;DHT22;6503;48.572;13.460;2023-03-14T06:54:34;6.30;99.90
12870;DHT22;6503;48.572;13.460;2023-03-14T06:57:19;6.30;99.90
12870;DHT22;6503;48.572;13.460;2023-03-14T07:11:04;6.80;99.90
12870;DHT22;6503;48.572;13.460;2023-03-14T07:17:20;7.20;99.90
12870;DHT22;6503;48.572;13.460;2023-03-14T07:20:12;7.30;99.90
12870;DHT22;6503;48.572;13.460;2023-03-14T07:26:24;7.60;99.90
12870;DHT22;6503;48.572;13.460;2023-03-14T07:33:37;7.80;99.90
12870;DHT22;6503;48.572;13.460;2023-03-14T07:35:58;7.90;99.90
12870;DHT22;6503;48.572;13.460;2023-03-14T07:42:23;8.00;99.90
12870;DHT22;6503;48.572;13.460;2023-03-14T07:45:40;8.00;99.90
12870;DHT22;6503;48.572;13.460;2023-03-14T07:48:16;8.10;99.90
12870;DHT22;6503;48.572;13.460;2023-03-14T07:51:33;8.10;99.90
12870;DHT22;6503;48.572;13.460;2023-03-14T08:04:55;8.40;99.90
12870;DHT22;6503;48.572;13.460;2023-03-14T08:10:41;8.50;99.90
12870;DHT22;6503;48.572;13.460;2023-03-14T08:13:12;8.50;99.90
12870;DHT22;6503;48.572;13.460;2023-03-14T08:15:40;8.50;99.90
12870;DHT22;6503;48.572;13.460;2023-03-14T08:18:08;8.50;99.90
12870;DHT22;6503;48.572;13.460;2023-03-14T08:20:45;8.50;99.90
12870;DHT22;6503;48.572;13.460;2023-03-14T08:23:15;8.50;99.90
12870;DHT22;6503;48.572;13.460;2023-03-14T08:25:47;8.50;99.90
12870;DHT22;6503;48.572;13.460;2023-03-14T08:28:16;8.50;99.90
12870;DHT22;6503;48.572;13.460;2023-03-14T08:30:44;8.50;99.90
12870;DHT22;6503;48.572;13.460;2023-03-14T08:33:11;8.50;99.90
12870;DHT22;6503;48.572;13.460;2023-03-14T08:35:41;8.50;99.90
12870;DHT22;6503;48.572;13.460;2023-03-14T08:38:08;8.50;99.90
12870;DHT22;6503;48.572;13.460;2023-03-14T08:40:48;8.50;99.90
12870;DHT22;6503;48.572;13.460;2023-03-14T08:43:33;8.60;99.90
12870;DHT22;6503;48.572;13.460;2023-03-14T08:46:03;8.60;99.90
12870;DHT22;6503;48.572;13.460;2023-03-14T08:48:31;8.60;99.90
12870;DHT22;6503;48.572;13.460;2023-03-14T08:51:06;8.60;99.90
12870;DHT22;6503;48.572;13.460;2023-03-14T08:53:39;8.60;99.90
12870;DHT22;6503;48.572;13.460;2023-03-14T08:56:13;8.70;99.90
12870;DHT22;6503;48.572;13.460;2023-03-14T08:58:40;8.70;99.90
12870;DHT22;6503;48.572;13.460;2023-03-14T09:01:12;8.70;99.90
12870;DHT22;6503;48.572;13.460;2023-03-14T09:03:49;8.80;99.90
12870;DHT22;6503;48.572;13.460;2023-03-14T09:06:23;8.80;99.90
12870;DHT22;6503;48.572;13.460;2023-03-14T09:08:57;8.80;99.90
12870;DHT22;6503;48.572;13.460;2023-03-14T09:11:25;8.90;99.90
12870;DHT22;6503;48.572;13.460;2023-03-14T09:13:52;8.90;99.90
12870;DHT22;6503;48.572;13.460;2023-03-14T09:16:20;8.90;99.90
12870;DHT22;6503;48.572;13.460;2023-03-14T09:18:49;8.90;99.90
12870;DHT22;6503;48.572;13.460;2023-03-14T09:21:21;9.00;99.90
12870;DHT22;6503;48.572;13.460;2023-03-14T09:23:50;9.00;99.90
12870;DHT22;6503;48.572;13.460;2023-03-14T09:26:17;9.00;99.90
12870;DHT22;6503;48.572;13.460;2023-03-14T09:28:45;9.10;99.90
12870;DHT22;6503;48.572;13.460;2023-03-14T09:31:15;9.10;99.90
12870;DHT22;6503;48.572;13.460;2023-03-14T09:33:47;9.10;99.90
12870;DHT22;6503;48.572;13.460;2023-03-14T09:36:15;9.10;99.90
12870;DHT22;6503;48.572;13.460;2023-03-14T09:38:49;9.10;99.90
12870;DHT22;6503;48.572;13.460;2023-03-14T09:41:21;9.10;99.90
12870;DHT22;6503;48.572;13.460;2023-03-14T09:43:51;9.10;99.90
12870;DHT22;6503;48.572;13.460;2023-03-14T09:46:22;9.10;99.90
12870;DHT22;6503;48.572;13.460;2023-03-14T09:48:52;9.10;99.90
12870;DHT22;6503;48.572;13.460;2023-03-14T09:51:20;9.10;99.90
12870;DHT22;6503;48.572;13.460;2023-03-14T09:53:52;9.20;99.90
12870;DHT22;6503;48.572;13.460;2023-03-14T09:56:21;9.20;99.90
12870;DHT22;6503;48.572;13.460;2023-03-14T09:58:54;9.30;99.90
12870;DHT22;6503;48.572;13.460;2023-03-14T10:01:25;9.30;99.90
12870;DHT22;6503;48.572;13.460;2023-03-14T10:03:55;9.30;99.90
12870;DHT22;6503;48.572;13.460;2023-03-14T10:06:28;9.30;99.90
12870;DHT22;6503;48.572;13.460;2023-03-14T10:09:03;9.40;99.90
12870;DHT22;6503;48.572;13.460;2023-03-14T10:11:31;9.50;99.90
12870;DHT22;6503;48.572;13.460;2023-03-14T10:14:06;9.50;99.90
12870;DHT22;6503;48.572;13.460;2023-03-14T10:16:37;9.60;99.90
12870;DHT22;6503;48.572;13.460;2023-03-14T10:19:11;9.70;99.90
12870;DHT22;6503;48.572;13.460;2023-03-14T10:21:40;9.80;99.90
12870;DHT22;6503;48.572;13.460;2023-03-14T10:24:19;9.90;99.90
12870;DHT22;6503;48.572;13.460;2023-03-14T10:27:02;10.00;99.90
12870;DHT22;6503;48.572;13.460;2023-03-14T10:29:53;10.10;99.90
12870;DHT22;6503;48.572;13.460;2023-03-14T10:32:23;10.20;99.90
12870;DHT22;6503;48.572;13.460;2023-03-14T10:35:08;10.20;99.90
12870;DHT22;6503;48.572;13.460;2023-03-14T10:37:44;10.20;99.90
12870;DHT22;6503;48.572;13.460;2023-03-14T10:40:19;10.20;99.90
12870;DHT22;6503;48.572;13.460;2023-03-14T10:42:48;10.20;99.90
12870;DHT22;6503;48.572;13.460;2023-03-14T10:45:34;10.10;99.90
12870;DHT22;6503;48.572;13.460;2023-03-14T10:48:18;10.10;99.90
12870;DHT22;6503;48.572;13.460;2023-03-14T10:51:22;10.20;99.90
12870;DHT22;6503;48.572;13.460;2023-03-14T10:53:57;10.20;99.90
12870;DHT22;6503;48.572;13.460;2023-03-14T10:59:15;10.30;99.90
12870;DHT22;6503;48.572;13.460;2023-03-14T11:01:46;10.40;99.90
12870;DHT22;6503;48.572;13.460;2023-03-14T11:04:25;10.30;99.90
12870;DHT22;6503;48.572;13.460;2023-03-14T11:07:04;10.30;99.90
12870;DHT22;6503;48.572;13.460;2023-03-14T11:09:38;10.40;99.90
12870;DHT22;6503;48.572;13.460;2023-03-14T11:12:23;10.40;99.90
12870;DHT22;6503;48.572;13.460;2023-03-14T11:14:59;10.40;99.90
12870;DHT22;6503;48.572;13.460;2023-03-14T11:17:33;10.40;99.90
12870;DHT22;6503;48.572;13.460;2023-03-14T11:20:31;10.50;99.90
12870;DHT22;6503;48.572;13.460;2023-03-14T11:23:04;10.50;99.90
12870;DHT22;6503;48.572;13.460;2023-03-14T11:25:39;10.50;99.90
12870;DHT22;6503;48.572;13.460;2023-03-14T11:28:18;10.50;99.90
12870;DHT22;6503;48.572;13.460;2023-03-14T11:30:52;10.60;99.90
12870;DHT22;6503;48.572;13.460;2023-03-14T11:33:24;10.50;99.90
12870;DHT22;6503;48.572;13.460;2023-03-14T11:35:59;10.50;99.90
12870;DHT22;6503;48.572;13.460;2023-03-14T11:38:36;10.60;99.90
12870;DHT22;6503;48.572;13.460;2023-03-14T11:41:12;10.60;99.90
12870;DHT22;6503;48.572;13.460;2023-03-14T11:43:51;10.60;99.90
12870;DHT22;6503;48.572;13.460;2023-03-14T11:46:25;10.60;99.90
12870;DHT22;6503;48.572;13.460;2023-03-14T11:49:03;10.60;99.90
12870;DHT22;6503;48.572;13.460;2023-03-14T11:51:34;10.60;99.90
12870;DHT22;6503;48.572;13.460;2023-03-14T11:54:12;10.60;99.90
12870;DHT22;6503;48.572;13.460;2023-03-14T11:56:47;10.50;99.90
12870;DHT22;6503;48.572;13.460;2023-03-14T11:59:23;10.50;99.90
12870;DHT22;6503;48.572;13.460;2023-03-14T12:01:59;10.40;99.90
12870;DHT22;6503;48.572;13.460;2023-03-14T12:04:42;10.40;99.90
12870;DHT22;6503;48.572;13.460;2023-03-14T12:07:19;10.30;99.90
12870;DHT22;6503;48.572;13.460;2023-03-14T12:09:52;10.30;99.90
12870;DHT22;6503;48.572;13.460;2023-03-14T12:12:23;10.40;99.90
12870;DHT22;6503;48.572;13.460;2023-03-14T12:14:52;10.50;99.90
12870;DHT22;6503;48.572;13.460;2023-03-14T12:17:25;10.50;99.90
12870;DHT22;6503;48.572;13.460;2023-03-14T12:20:03;10.60;99.90
12870;DHT22;6503;48.572;13.460;2023-03-14T12:22:35;10.70;99.90
12870;DHT22;6503;48.572;13.460;2023-03-14T12:25:13;10.70;99.90
12870;DHT22;6503;48.572;13.460;2023-03-14T12:28:03;10.80;99.90
12870;DHT22;6503;48.572;13.460;2023-03-14T12:30:32;10.80;99.90
12870;DHT22;6503;48.572;13.460;2023-03-14T12:33:24;10.90;99.90
12870;DHT22;6503;48.572;13.460;2023-03-14T12:35:58;10.80;99.90
12870;DHT22;6503;48.572;13.460;2023-03-14T12:38:43;10.80;99.90
12870;DHT22;6503;48.572;13.460;2023-03-14T12:41:15;10.70;99.90
12870;DHT22;6503;48.572;13.460;2023-03-14T12:43:46;10.80;99.90
12870;DHT22;6503;48.572;13.460;2023-03-14T12:46:22;10.80;99.90
12870;DHT22;6503;48.572;13.460;2023-03-14T12:49:05;10.90;99.90
12870;DHT22;6503;48.572;13.460;2023-03-14T12:51:35;11.00;99.90
12870;DHT22;6503;48.572;13.460;2023-03-14T12:54:24;11.00;99.90
12870;DHT22;6503;48.572;13.460;2023-03-14T12:57:06;11.00;99.90
12870;DHT22;6503;48.572;13.460;2023-03-14T12:59:38;10.90;99.90
12870;DHT22;6503;48.572;13.460;2023-03-14T13:02:20;10.80;99.90
12870;DHT22;6503;48.572;13.460;2023-03-14T13:05:02;10.80;99.90
12870;DHT22;6503;48.572;13.460;2023-03-14T13:07:38;10.70;99.90
12870;DHT22;6503;48.572;13.460;2023-03-14T13:10:38;10.60;99.90
12870;DHT22;6503;48.572;13.460;2023-03-14T13:13:17;10.60;99.90
12870;DHT22;6503;48.572;13.460;2023-03-14T13:15:49;10.60;99.90
12870;DHT22;6503;48.572;13.460;2023-03-14T13:18:28;10.50;99.90
12870;DHT22;6503;48.572;13.460;2023-03-14T13:21:02;10.60;99.90
12870;DHT22;6503;48.572;13.460;2023-03-14T13:23:33;10.70;99.90
12870;DHT22;6503;48.572;13.460;2023-03-14T13:26:01;10.60;99.90
12870;DHT22;6503;48.572;13.460;2023-03-14T13:28:30;10.60;99.90
12870;DHT22;6503;48.572;13.460;2023-03-14T13:31:01;10.60;99.90
12870;DHT22;6503;48.572;13.460;2023-03-14T13:33:30;10.60;99.90
12870;DHT22;6503;48.572;13.460;2023-03-14T13:36:03;10.60;99.90
12870;DHT22;6503;48.572;13.460;2023-03-14T13:38:31;10.60;99.90
12870;DHT22;6503;48.572;13.460;2023-03-14T13:41:03;10.50;99.90
12870;DHT22;6503;48.572;13.460;2023-03-14T13:43:33;10.60;99.90
12870;DHT22;6503;48.572;13.460;2023-03-14T13:46:04;10.60;99.90
12870;DHT22;6503;48.572;13.460;2023-03-14T13:48:34;10.70;99.90
12870;DHT22;6503;48.572;13.460;2023-03-14T13:51:05;10.90;99.90
12870;DHT22;6503;48.572;13.460;2023-03-14T13:53:43;11.30;99.90
12870;DHT22;6503;48.572;13.460;2023-03-14T13:56:13;11.60;99.90
12870;DHT22;6503;48.572;13.460;2023-03-14T13:58:40;11.90;99.90
12870;DHT22;6503;48.572;13.460;2023-03-14T14:01:11;11.90;99.90
12870;DHT22;6503;48.572;13.460;2023-03-14T14:03:42;12.00;99.90
12870;DHT22;6503;48.572;13.460;2023-03-14T14:06:22;11.90;99.90
12870;DHT22;6503;48.572;13.460;2023-03-14T14:08:51;11.90;99.90
12870;DHT22;6503;48.572;13.460;2023-03-14T14:11:31;12.00;99.90
12870;DHT22;6503;48.572;13.460;2023-03-14T14:14:00;11.90;99.90
12870;DHT22;6503;48.572;13.460;2023-03-14T14:16:29;11.90;99.90
12870;DHT22;6503;48.572;13.460;2023-03-14T14:18:59;11.90;99.90
12870;DHT22;6503;48.572;13.460;2023-03-14T14:21:29;11.80;99.90
12870;DHT22;6503;48.572;13.460;2023-03-14T14:23:59;11.60;99.90
12870;DHT22;6503;48.572;13.460;2023-03-14T14:26:27;11.50;99.90
12870;DHT22;6503;48.572;13.460;2023-03-14T14:29:03;11.40;99.90
12870;DHT22;6503;48.572;13.460;2023-03-14T14:31:34;11.40;99.90
12870;DHT22;6503;48.572;13.460;2023-03-14T14:34:03;11.30;99.90
12870;DHT22;6503;48.572;13.460;2023-03-14T14:36:38;11.30;99.90
12870;DHT22;6503;48.572;13.460;2023-03-14T14:39:15;11.20;99.90
12870;DHT22;6503;48.572;13.460;2023-03-14T14:41:48;11.20;99.90
12870;DHT22;6503;48.572;13.460;2023-03-14T14:44:21;11.10;99.90
12870;DHT22;6503;48.572;13.460;2023-03-14T14:46:48;11.10;99.90
12870;DHT22;6503;48.572;13.460;2023-03-14T14:49:19;11.10;99.90
12870;DHT22;6503;48.572;13.460;2023-03-14T14:51:50;11.00;99.90
12870;DHT22;6503;48.572;13.460;2023-03-14T14:54:33;11.00;99.90
12870;DHT22;6503;48.572;13.460;2023-03-14T14:57:04;11.10;99.90
12870;DHT22;6503;48.572;13.460;2023-03-14T14:59:32;11.10;99.90
12870;DHT22;6503;48.572;13.460;2023-03-14T15:02:01;11.10;99.90
12870;DHT22;6503;48.572;13.460;2023-03-14T15:04:30;11.00;99.90
12870;DHT22;6503;48.572;13.460;2023-03-14T15:06:59;11.00;99.90
12870;DHT22;6503;48.572;13.460;2023-03-14T15:09:26;11.10;99.90
12870;DHT22;6503;48.572;13.460;2023-03-14T15:11:54;11.20;99.90
12870;DHT22;6503;48.572;13.460;2023-03-14T15:14:27;11.30;99.90
12870;DHT22;6503;48.572;13.460;2023-03-14T15:16:54;11.30;99.90
12870;DHT22;6503;48.572;13.460;2023-03-14T15:19:23;11.30;99.90
12870;DHT22;6503;48.572;13.460;2023-03-14T15:21:51;11.20;99.90
12870;DHT22;6503;48.572;13.460;2023-03-14T15:24:21;11.20;99.90
12870;DHT22;6503;48.572;13.460;2023-03-14T15:26:51;11.30;99.90
12870;DHT22;6503;48.572;13.460;2023-03-14T15:29:26;11.30;99.90
12870;DHT22;6503;48.572;13.460;2023-03-14T15:31:53;11.30;99.90
12870;DHT22;6503;48.572;13.460;2023-03-14T15:34:25;11.40;99.90
12870;DHT22;6503;48.572;13.460;2023-03-14T15:37:08;11.30;99.90
12870;DHT22;6503;48.572;13.460;2023-03-14T15:39:42;11.20;99.90
12870;DHT22;6503;48.572;13.460;2023-03-14T15:42:09;11.10;99.90
12870;DHT22;6503;48.572;13.460;2023-03-14T15:44:39;11.10;99.90
12870;DHT22;6503;48.572;13.460;2023-03-14T15:47:16;11.00;99.90
12870;DHT22;6503;48.572;13.460;2023-03-14T15:49:59;10.90;99.90
12870;DHT22;6503;48.572;13.460;2023-03-14T15:52:36;10.80;99.90
12870;DHT22;6503;48.572;13.460;2023-03-14T15:55:19;10.60;99.90
12870;DHT22;6503;48.572;13.460;2023-03-14T15:58:01;10.40;99.90
12870;DHT22;6503;48.572;13.460;2023-03-14T16:00:37;10.10;99.90
12870;DHT22;6503;48.572;13.460;2023-03-14T16:03:20;9.80;99.90
12870;DHT22;6503;48.572;13.460;2023-03-14T16:06:01;9.50;99.90
12870;DHT22;6503;48.572;13.460;2023-03-14T16:08:29;9.40;99.90
12870;DHT22;6503;48.572;13.460;2023-03-14T16:11:02;9.30;99.90
12870;DHT22;6503;48.572;13.460;2023-03-14T16:13:43;9.20;99.90
12870;DHT22;6503;48.572;13.460;2023-03-14T16:16:24;9.10;99.90
12870;DHT22;6503;48.572;13.460;2023-03-14T16:21:54;9.10;99.90
12870;DHT22;6503;48.572;13.460;2023-03-14T16:24:35;9.00;99.90
12870;DHT22;6503;48.572;13.460;2023-03-14T16:27:23;8.90;99.90
12870;DHT22;6503;48.572;13.460;2023-03-14T16:29:53;8.80;99.90
12870;DHT22;6503;48.572;13.460;2023-03-14T16:32:20;8.80;99.90
12870;DHT22;6503;48.572;13.460;2023-03-14T16:35:22;8.80;99.90
12870;DHT22;6503;48.572;13.460;2023-03-14T16:38:05;8.70;99.90
12870;DHT22;6503;48.572;13.460;2023-03-14T16:40:56;8.60;99.90
12870;DHT22;6503;48.572;13.460;2023-03-14T16:44:10;8.60;99.90
12870;DHT22;6503;48.572;13.460;2023-03-14T16:46:42;8.60;99.90
12870;DHT22;6503;48.572;13.460;2023-03-14T16:49:11;8.50;99.90
12870;DHT22;6503;48.572;13.460;2023-03-14T16:51:51;8.50;99.90
12870;DHT22;6503;48.572;13.460;2023-03-14T16:54:19;8.60;99.90
12870;DHT22;6503;48.572;13.460;2023-03-14T16:56:52;8.60;99.90
12870;DHT22;6503;48.572;13.460;2023-03-14T16:59:25;8.60;99.90
12870;DHT22;6503;48.572;13.460;2023-03-14T17:01:56;8.70;99.90
12870;DHT22;6503;48.572;13.460;2023-03-14T17:04:26;8.60;99.90
12870;DHT22;6503;48.572;13.460;2023-03-14T17:06:54;8.70;99.90
12870;DHT22;6503;48.572;13.460;2023-03-14T17:09:35;8.70;99.90
12870;DHT22;6503;48.572;13.460;2023-03-14T17:12:16;8.70;99.90
12870;DHT22;6503;48.572;13.460;2023-03-14T17:15:01;8.70;99.90
12870;DHT22;6503;48.572;13.460;2023-03-14T17:17:28;8.60;99.90
12870;DHT22;6503;48.572;13.460;2023-03-14T17:20:00;8.70;99.90
12870;DHT22;6503;48.572;13.460;2023-03-14T17:22:42;8.60;99.90
12870;DHT22;6503;48.572;13.460;2023-03-14T17:25:09;8.50;99.90
12870;DHT22;6503;48.572;13.460;2023-03-14T17:27:38;8.40;99.90
12870;DHT22;6503;48.572;13.460;2023-03-14T17:30:10;8.40;99.90
12870;DHT22;6503;48.572;13.460;2023-03-14T17:32:52;8.40;99.90
12870;DHT22;6503;48.572;13.460;2023-03-14T17:35:33;8.30;99.90
12870;DHT22;6503;48.572;13.460;2023-03-14T17:38:00;8.30;99.90
12870;DHT22;6503;48.572;13.460;2023-03-14T17:40:28;8.30;99.90
12870;DHT22;6503;48.572;13.460;2023-03-14T17:42:55;8.20;99.90
12870;DHT22;6503;48.572;13.460;2023-03-14T17:45:24;8.20;99.90
12870;DHT22;6503;48.572;13.460;2023-03-14T17:47:53;8.20;99.90
12870;DHT22;6503;48.572;13.460;2023-03-14T17:50:23;8.20;99.90
12870;DHT22;6503;48.572;13.460;2023-03-14T17:52:51;8.20;99.90
12870;DHT22;6503;48.572;13.460;2023-03-14T17:55:20;8.20;99.90
12870;DHT22;6503;48.572;13.460;2023-03-14T17:57:47;8.10;99.90
12870;DHT22;6503;48.572;13.460;2023-03-14T18:00:16;8.10;99.90
12870;DHT22;6503;48.572;13.460;2023-03-14T18:02:46;8.10;99.90
12870;DHT22;6503;48.572;13.460;2023-03-14T18:05:14;8.10;99.90
12870;DHT22;6503;48.572;13.460;2023-03-14T18:07:43;8.20;99.90
12870;DHT22;6503;48.572;13.460;2023-03-14T18:10:24;8.10;99.90
12870;DHT22;6503;48.572;13.460;2023-03-14T18:12:52;8.10;99.90
12870;DHT22;6503;48.572;13.460;2023-03-14T18:15:19;8.10;99.90
12870;DHT22;6503;48.572;13.460;2023-03-14T18:18:11;8.10;99.90
12870;DHT22;6503;48.572;13.460;2023-03-14T18:20:40;8.10;99.90
12870;DHT22;6503;48.572;13.460;2023-03-14T18:23:12;8.20;99.90
12870;DHT22;6503;48.572;13.460;2023-03-14T18:25:53;8.20;99.90
12870;DHT22;6503;48.572;13.460;2023-03-14T18:28:34;8.20;99.90
12870;DHT22;6503;48.572;13.460;2023-03-14T18:31:06;8.20;99.90
12870;DHT22;6503;48.572;13.460;2023-03-14T18:33:35;8.30;99.90
12870;DHT22;6503;48.572;13.460;2023-03-14T18:36:12;8.20;99.90
12870;DHT22;6503;48.572;13.460;2023-03-14T18:38:41;8.20;99.90
12870;DHT22;6503;48.572;13.460;2023-03-14T18:41:12;8.20;99.90
12870;DHT22;6503;48.572;13.460;2023-03-14T18:43:41;8.10;99.90
12870;DHT22;6503;48.572;13.460;2023-03-14T18:46:22;8.10;99.90
12870;DHT22;6503;48.572;13.460;2023-03-14T18:48:57;8.00;99.90
12870;DHT22;6503;48.572;13.460;2023-03-14T18:51:31;8.00;99.90
12870;DHT22;6503;48.572;13.460;2023-03-14T18:54:12;8.00;99.90
12870;DHT22;6503;48.572;13.460;2023-03-14T18:56:40;8.00;99.90
12870;DHT22;6503;48.572;13.460;2023-03-14T18:59:11;8.00;99.90
12870;DHT22;6503;48.572;13.460;2023-03-14T19:01:39;8.00;99.90
12870;DHT22;6503;48.572;13.460;2023-03-14T19:04:09;7.90;99.90
12870;DHT22;6503;48.572;13.460;2023-03-14T19:06:36;8.00;99.90
12870;DHT22;6503;48.572;13.460;2023-03-14T19:09:06;7.90;99.90
12870;DHT22;6503;48.572;13.460;2023-03-14T19:11:35;7.80;99.90
12870;DHT22;6503;48.572;13.460;2023-03-14T19:14:03;7.80;99.90
12870;DHT22;6503;48.572;13.460;2023-03-14T19:16:32;7.80;99.90
12870;DHT22;6503;48.572;13.460;2023-03-14T19:18:59;7.80;99.90
12870;DHT22;6503;48.572;13.460;2023-03-14T19:21:34;7.70;99.90
12870;DHT22;6503;48.572;13.460;2023-03-14T19:24:03;7.70;99.90
12870;DHT22;6503;48.572;13.460;2023-03-14T19:26:34;7.70;99.90
12870;DHT22;6503;48.572;13.460;2023-03-14T19:29:03;7.70;99.90
12870;DHT22;6503;48.572;13.460;2023-03-14T19:31:44;7.70;99.90
12870;DHT22;6503;48.572;13.460;2023-03-14T19:34:11;7.70;99.90
12870;DHT22;6503;48.572;13.460;2023-03-14T19:36:56;7.70;99.90